Taillefer 3 — FGD5050 — position and weather

sailwx.info

Track history (hours):
 
Tides and Currents Weather Stations Pressure Air Temp Water Temp Dewpoint Dewpoint Depression Visibility Wind Speed Wind Dir Waves Ship Positions

Taillefer 3

Last reported at 2018-Jan-09 13:28 UTC. Time now 2018-Jan-20 03:37 UTC.
Position N 47°45' W 003°21'.
Warning: this ship's position is 10 days out of date.

Length 40 m; draft 1.8 m.

Type: Cargo ship. MMSI: 227566810.

Date/timePositionNaut miles runAvg speedWind from/ knotsBaromVisibWave heightAir tempDewpointWater temp
2018-Jan-09 13:28N 47°45' W 003°21'0 0.0
2018-Jan-09 13:01N 47°45' W 003°21'0 0.0
2018-Jan-09 12:31N 47°45' W 003°21'3 5.3
2018-Jan-09 12:01N 47°42' W 003°22'510.1
2018-Jan-09 11:31N 47°37' W 003°20'510.2
2018-Jan-09 11:00N 47°33' W 003°16'510.4
2018-Jan-09 10:31N 47°28' W 003°12'510.6
2018-Jan-09 10:01N 47°23' W 003°10'3 0.2
2018-Jan-08 20:00N 47°21' W 003°09'1 1.1
2018-Jan-08 19:30N 47°21' W 003°09'0 0.0
2018-Jan-08 19:01N 47°21' W 003°09'0 0.0
2018-Jan-08 18:31N 47°21' W 003°09'0 0.0
2018-Jan-08 18:01N 47°21' W 003°09'0 0.0
2018-Jan-08 17:30N 47°21' W 003°09'0 0.0
2018-Jan-08 17:00N 47°21' W 003°09'0 0.0
2018-Jan-08 16:31N 47°21' W 003°09'3 6.2
2018-Jan-08 16:01N 47°24' W 003°06'5 9.1
2018-Jan-08 15:31N 47°27' W 003°01'5 9.6
2018-Jan-08 15:01N 47°30' W 002°56'510.8
2018-Jan-08 14:31N 47°35' W 002°52'4 8.3
2018-Jan-08 14:00N 47°37' W 002°47'1 3.0
2018-Jan-08 13:31N 47°38' W 002°46'0 0.0
2018-Jan-08 13:00N 47°38' W 002°46'0 0.0
2018-Jan-08 12:31N 47°38' W 002°46'0 0.0
2018-Jan-08 12:01N 47°38' W 002°46'0 0.0
2018-Jan-08 11:31N 47°38' W 002°46'  
2018-Jan-05 10:47N 47°38' W 002°46'0 0.0
2018-Jan-05 10:30N 47°38' W 002°46'0 0.0
2018-Jan-05 10:00N 47°38' W 002°46'0 0.0
2018-Jan-05 09:30N 47°38' W 002°46'0 0.1
2018-Jan-05 09:00N 47°38' W 002°46'3 6.2
2018-Jan-05 08:31N 47°37' W 002°49'5 9.5
2018-Jan-05 08:00N 47°34' W 002°55'5 9.6
2018-Jan-05 07:31N 47°29' W 002°58'5 9.9
2018-Jan-05 07:01N 47°26' W 003°03'5 9.7
2018-Jan-05 06:31N 47°22' W 003°08'2 0.1
2018-Jan-04 15:16N 47°21' W 003°09'1 2.2
2018-Jan-04 15:00N 47°21' W 003°09'0 0.0
2018-Jan-04 14:30N 47°21' W 003°09'0 0.0
2018-Jan-04 14:00N 47°21' W 003°09'2 4.4
2018-Jan-04 13:30N 47°22' W 003°06'4 8.2
2018-Jan-04 13:00N 47°24' W 003°00'4 7.9
2018-Jan-04 12:31N 47°27' W 002°57'4 8.5
2018-Jan-04 12:01N 47°31' W 002°55'611.0
2018-Jan-04 11:30N 47°36' W 002°51'4 8.1
2018-Jan-04 11:00N 47°38' W 002°46'1 1.3
2018-Jan-04 10:30N 47°38' W 002°46'0 0.0
2018-Jan-04 10:00N 47°38' W 002°46'0 0.0
2018-Jan-04 09:30N 47°38' W 002°46'0 0.0
2018-Jan-04 09:00N 47°38' W 002°46'0 0.0
2018-Jan-04 08:30N 47°38' W 002°46'0 0.0
2018-Jan-04 08:00N 47°38' W 002°46'0 0.0
2018-Jan-04 07:30N 47°38' W 002°46'  
Track history (hours):
 
Tides and Currents Weather Stations Pressure Air Temp Water Temp Dewpoint Dewpoint Depression Visibility Wind Speed Wind Dir Waves Ship Positions

Taillefer 3

Last reported at 2018-Jan-09 13:28 UTC. Time now 2018-Jan-20 03:37 UTC.
Position N 47°45' W 003°21'.
Warning: this ship's position is 10 days out of date.

Length 40 m; draft 1.8 m.

Type: Cargo ship. MMSI: 227566810.

Date/timePositionNaut miles runAvg speedWind from/ knotsBaromVisibWave heightAir tempDewpointWater temp
2018-Jan-09 13:28N 47°45' W 003°21'0 0.0
2018-Jan-09 13:01N 47°45' W 003°21'0 0.0
2018-Jan-09 12:31N 47°45' W 003°21'3 5.3
2018-Jan-09 12:01N 47°42' W 003°22'510.1
2018-Jan-09 11:31N 47°37' W 003°20'510.2
2018-Jan-09 11:00N 47°33' W 003°16'510.4
2018-Jan-09 10:31N 47°28' W 003°12'510.6
2018-Jan-09 10:01N 47°23' W 003°10'3 0.2
2018-Jan-08 20:00N 47°21' W 003°09'1 1.1
2018-Jan-08 19:30N 47°21' W 003°09'0 0.0
2018-Jan-08 19:01N 47°21' W 003°09'0 0.0
2018-Jan-08 18:31N 47°21' W 003°09'0 0.0
2018-Jan-08 18:01N 47°21' W 003°09'0 0.0
2018-Jan-08 17:30N 47°21' W 003°09'0 0.0
2018-Jan-08 17:00N 47°21' W 003°09'0 0.0
2018-Jan-08 16:31N 47°21' W 003°09'3 6.2
2018-Jan-08 16:01N 47°24' W 003°06'5 9.1
2018-Jan-08 15:31N 47°27' W 003°01'5 9.6
2018-Jan-08 15:01N 47°30' W 002°56'510.8
2018-Jan-08 14:31N 47°35' W 002°52'4 8.3
2018-Jan-08 14:00N 47°37' W 002°47'1 3.0
2018-Jan-08 13:31N 47°38' W 002°46'0 0.0
2018-Jan-08 13:00N 47°38' W 002°46'0 0.0
2018-Jan-08 12:31N 47°38' W 002°46'0 0.0
2018-Jan-08 12:01N 47°38' W 002°46'0 0.0
2018-Jan-08 11:31N 47°38' W 002°46'  
2018-Jan-05 10:47N 47°38' W 002°46'0 0.0
2018-Jan-05 10:30N 47°38' W 002°46'0 0.0
2018-Jan-05 10:00N 47°38' W 002°46'0 0.0
2018-Jan-05 09:30N 47°38' W 002°46'0 0.1
2018-Jan-05 09:00N 47°38' W 002°46'3 6.2
2018-Jan-05 08:31N 47°37' W 002°49'5 9.5
2018-Jan-05 08:00N 47°34' W 002°55'5 9.6
2018-Jan-05 07:31N 47°29' W 002°58'5 9.9
2018-Jan-05 07:01N 47°26' W 003°03'5 9.7
2018-Jan-05 06:31N 47°22' W 003°08'2 0.1
2018-Jan-04 15:16N 47°21' W 003°09'1 2.2
2018-Jan-04 15:00N 47°21' W 003°09'0 0.0
2018-Jan-04 14:30N 47°21' W 003°09'0 0.0
2018-Jan-04 14:00N 47°21' W 003°09'2 4.4
2018-Jan-04 13:30N 47°22' W 003°06'4 8.2
2018-Jan-04 13:00N 47°24' W 003°00'4 7.9
2018-Jan-04 12:31N 47°27' W 002°57'4 8.5
2018-Jan-04 12:01N 47°31' W 002°55'611.0
2018-Jan-04 11:30N 47°36' W 002°51'4 8.1
2018-Jan-04 11:00N 47°38' W 002°46'1 1.3
2018-Jan-04 10:30N 47°38' W 002°46'0 0.0
2018-Jan-04 10:00N 47°38' W 002°46'0 0.0
2018-Jan-04 09:30N 47°38' W 002°46'0 0.0
2018-Jan-04 09:00N 47°38' W 002°46'0 0.0
2018-Jan-04 08:30N 47°38' W 002°46'0 0.0
2018-Jan-04 08:00N 47°38' W 002°46'0 0.0
2018-Jan-04 07:30N 47°38' W 002°46'  

Dump ship's entire track history